sensor_id;sensor_type;location;lat;lon;timestamp;P1;durP1;ratioP1;P2;durP2;ratioP2
54157;SDS011;40065;49.894;10.358;2023-10-19T00:03:51;30.95;;;18.17;;
54157;SDS011;40065;49.894;10.358;2023-10-19T00:08:54;29.00;;;18.20;;
54157;SDS011;40065;49.894;10.358;2023-10-19T00:13:56;30.73;;;17.83;;
54157;SDS011;40065;49.894;10.358;2023-10-19T00:18:59;30.35;;;18.95;;
54157;SDS011;40065;49.894;10.358;2023-10-19T00:24:01;30.30;;;19.23;;
54157;SDS011;40065;49.894;10.358;2023-10-19T00:29:06;29.80;;;18.33;;
54157;SDS011;40065;49.894;10.358;2023-10-19T00:34:28;31.90;;;19.05;;
54157;SDS011;40065;49.894;10.358;2023-10-19T00:39:30;35.25;;;20.65;;
54157;SDS011;40065;49.894;10.358;2023-10-19T00:44:42;31.73;;;19.30;;
54157;SDS011;40065;49.894;10.358;2023-10-19T00:49:48;30.50;;;19.73;;
54157;SDS011;40065;49.894;10.358;2023-10-19T00:54:50;33.03;;;19.27;;
54157;SDS011;40065;49.894;10.358;2023-10-19T00:59:53;32.63;;;20.65;;
54157;SDS011;40065;49.894;10.358;2023-10-19T01:04:57;34.10;;;20.50;;
54157;SDS011;40065;49.894;10.358;2023-10-19T01:10:21;31.75;;;20.58;;
54157;SDS011;40065;49.894;10.358;2023-10-19T01:15:29;35.90;;;20.45;;
54157;SDS011;40065;49.894;10.358;2023-10-19T01:20:32;35.08;;;21.00;;
54157;SDS011;40065;49.894;10.358;2023-10-19T01:30:50;35.42;;;22.15;;
54157;SDS011;40065;49.894;10.358;2023-10-19T01:35:55;35.05;;;21.88;;
54157;SDS011;40065;49.894;10.358;2023-10-19T01:41:12;36.40;;;22.27;;
54157;SDS011;40065;49.894;10.358;2023-10-19T01:46:16;36.95;;;22.40;;
54157;SDS011;40065;49.894;10.358;2023-10-19T01:51:26;39.28;;;23.85;;
54157;SDS011;40065;49.894;10.358;2023-10-19T02:01:32;38.97;;;24.33;;
54157;SDS011;40065;49.894;10.358;2023-10-19T02:06:35;39.33;;;23.80;;
54157;SDS011;40065;49.894;10.358;2023-10-19T02:11:39;39.95;;;23.65;;
54157;SDS011;40065;49.894;10.358;2023-10-19T02:16:44;39.92;;;24.35;;
54157;SDS011;40065;49.894;10.358;2023-10-19T02:21:58;42.33;;;24.38;;
54157;SDS011;40065;49.894;10.358;2023-10-19T02:27:05;39.58;;;23.30;;
54157;SDS011;40065;49.894;10.358;2023-10-19T02:32:11;40.35;;;24.80;;
54157;SDS011;40065;49.894;10.358;2023-10-19T02:37:13;37.72;;;22.63;;
54157;SDS011;40065;49.894;10.358;2023-10-19T02:42:15;41.17;;;24.05;;
54157;SDS011;40065;49.894;10.358;2023-10-19T02:47:18;41.17;;;22.88;;
54157;SDS011;40065;49.894;10.358;2023-10-19T02:52:20;40.22;;;23.67;;
54157;SDS011;40065;49.894;10.358;2023-10-19T02:57:23;41.95;;;22.90;;
54157;SDS011;40065;49.894;10.358;2023-10-19T03:02:25;40.10;;;23.50;;
54157;SDS011;40065;49.894;10.358;2023-10-19T03:07:28;43.60;;;23.17;;
54157;SDS011;40065;49.894;10.358;2023-10-19T03:12:29;37.33;;;22.35;;
54157;SDS011;40065;49.894;10.358;2023-10-19T03:17:32;42.22;;;23.48;;
54157;SDS011;40065;49.894;10.358;2023-10-19T03:22:34;34.58;;;20.95;;
54157;SDS011;40065;49.894;10.358;2023-10-19T03:27:36;31.50;;;18.73;;
54157;SDS011;40065;49.894;10.358;2023-10-19T03:32:38;27.77;;;17.60;;
54157;SDS011;40065;49.894;10.358;2023-10-19T03:37:42;28.42;;;17.55;;
54157;SDS011;40065;49.894;10.358;2023-10-19T03:42:47;28.85;;;17.65;;
54157;SDS011;40065;49.894;10.358;2023-10-19T03:47:50;28.17;;;17.00;;
54157;SDS011;40065;49.894;10.358;2023-10-19T03:52:55;29.98;;;18.00;;
54157;SDS011;40065;49.894;10.358;2023-10-19T03:57:57;27.52;;;18.80;;
54157;SDS011;40065;49.894;10.358;2023-10-19T04:03:00;29.98;;;18.05;;
54157;SDS011;40065;49.894;10.358;2023-10-19T04:08:02;29.00;;;18.52;;
54157;SDS011;40065;49.894;10.358;2023-10-19T04:13:14;33.47;;;19.40;;
54157;SDS011;40065;49.894;10.358;2023-10-19T04:18:16;31.27;;;19.08;;
54157;SDS011;40065;49.894;10.358;2023-10-19T04:23:18;28.35;;;18.55;;
54157;SDS011;40065;49.894;10.358;2023-10-19T04:28:22;28.85;;;18.83;;
54157;SDS011;40065;49.894;10.358;2023-10-19T04:33:32;30.00;;;19.23;;
54157;SDS011;40065;49.894;10.358;2023-10-19T04:38:35;29.10;;;18.50;;
54157;SDS011;40065;49.894;10.358;2023-10-19T04:43:38;31.75;;;20.13;;
54157;SDS011;40065;49.894;10.358;2023-10-19T04:48:41;30.55;;;19.10;;
54157;SDS011;40065;49.894;10.358;2023-10-19T04:58:47;30.73;;;19.98;;
54157;SDS011;40065;49.894;10.358;2023-10-19T05:03:49;34.38;;;20.23;;
54157;SDS011;40065;49.894;10.358;2023-10-19T05:08:51;32.67;;;20.13;;
54157;SDS011;40065;49.894;10.358;2023-10-19T05:13:56;30.55;;;19.63;;
54157;SDS011;40065;49.894;10.358;2023-10-19T05:18:58;33.28;;;21.10;;
54157;SDS011;40065;49.894;10.358;2023-10-19T05:24:00;35.22;;;21.27;;
54157;SDS011;40065;49.894;10.358;2023-10-19T05:29:02;34.38;;;21.08;;
54157;SDS011;40065;49.894;10.358;2023-10-19T05:34:04;33.90;;;21.67;;
54157;SDS011;40065;49.894;10.358;2023-10-19T05:39:06;34.58;;;22.98;;
54157;SDS011;40065;49.894;10.358;2023-10-19T05:44:09;35.72;;;23.15;;
54157;SDS011;40065;49.894;10.358;2023-10-19T05:49:11;35.80;;;21.85;;
54157;SDS011;40065;49.894;10.358;2023-10-19T05:54:14;39.10;;;21.90;;
54157;SDS011;40065;49.894;10.358;2023-10-19T05:59:15;35.38;;;22.98;;
54157;SDS011;40065;49.894;10.358;2023-10-19T06:04:17;41.20;;;24.50;;
54157;SDS011;40065;49.894;10.358;2023-10-19T06:09:22;40.88;;;23.13;;
54157;SDS011;40065;49.894;10.358;2023-10-19T06:14:30;41.25;;;24.83;;
54157;SDS011;40065;49.894;10.358;2023-10-19T06:19:32;38.00;;;23.20;;
54157;SDS011;40065;49.894;10.358;2023-10-19T06:24:34;45.13;;;23.92;;
54157;SDS011;40065;49.894;10.358;2023-10-19T06:29:37;37.42;;;22.80;;
54157;SDS011;40065;49.894;10.358;2023-10-19T06:34:38;38.58;;;23.85;;
54157;SDS011;40065;49.894;10.358;2023-10-19T06:39:41;40.35;;;24.60;;
54157;SDS011;40065;49.894;10.358;2023-10-19T06:44:43;35.17;;;21.05;;
54157;SDS011;40065;49.894;10.358;2023-10-19T06:49:44;39.28;;;23.42;;
54157;SDS011;40065;49.894;10.358;2023-10-19T06:54:46;47.22;;;26.05;;
54157;SDS011;40065;49.894;10.358;2023-10-19T06:59:48;48.75;;;26.05;;
54157;SDS011;40065;49.894;10.358;2023-10-19T07:04:50;42.47;;;24.60;;
54157;SDS011;40065;49.894;10.358;2023-10-19T07:09:52;37.22;;;22.27;;
54157;SDS011;40065;49.894;10.358;2023-10-19T07:14:54;40.63;;;24.15;;
54157;SDS011;40065;49.894;10.358;2023-10-19T07:19:56;34.17;;;21.48;;
54157;SDS011;40065;49.894;10.358;2023-10-19T07:24:58;25.98;;;17.17;;
54157;SDS011;40065;49.894;10.358;2023-10-19T07:30:01;25.45;;;17.48;;
54157;SDS011;40065;49.894;10.358;2023-10-19T07:35:07;22.40;;;16.33;;
54157;SDS011;40065;49.894;10.358;2023-10-19T07:40:10;22.85;;;15.95;;
54157;SDS011;40065;49.894;10.358;2023-10-19T07:45:15;26.05;;;18.25;;
54157;SDS011;40065;49.894;10.358;2023-10-19T07:50:17;31.85;;;22.52;;
54157;SDS011;40065;49.894;10.358;2023-10-19T07:55:21;25.83;;;17.05;;
54157;SDS011;40065;49.894;10.358;2023-10-19T08:00:24;30.52;;;21.95;;
54157;SDS011;40065;49.894;10.358;2023-10-19T08:05:26;26.58;;;18.02;;
54157;SDS011;40065;49.894;10.358;2023-10-19T08:10:29;25.88;;;16.35;;
54157;SDS011;40065;49.894;10.358;2023-10-19T08:15:31;23.33;;;16.05;;
54157;SDS011;40065;49.894;10.358;2023-10-19T08:20:33;20.92;;;14.82;;
54157;SDS011;40065;49.894;10.358;2023-10-19T08:25:38;22.65;;;14.45;;
54157;SDS011;40065;49.894;10.358;2023-10-19T08:30:56;20.83;;;13.88;;
54157;SDS011;40065;49.894;10.358;2023-10-19T08:35:59;20.38;;;15.18;;
54157;SDS011;40065;49.894;10.358;2023-10-19T08:41:03;22.48;;;15.65;;
54157;SDS011;40065;49.894;10.358;2023-10-19T08:46:06;24.08;;;15.75;;
54157;SDS011;40065;49.894;10.358;2023-10-19T08:51:09;18.67;;;13.03;;
54157;SDS011;40065;49.894;10.358;2023-10-19T08:56:11;17.92;;;12.80;;
54157;SDS011;40065;49.894;10.358;2023-10-19T09:01:14;16.08;;;11.52;;
54157;SDS011;40065;49.894;10.358;2023-10-19T09:06:21;13.80;;;10.48;;
54157;SDS011;40065;49.894;10.358;2023-10-19T09:11:22;17.73;;;11.95;;
54157;SDS011;40065;49.894;10.358;2023-10-19T09:16:26;14.98;;;11.13;;
54157;SDS011;40065;49.894;10.358;2023-10-19T09:21:28;14.88;;;10.50;;
54157;SDS011;40065;49.894;10.358;2023-10-19T09:26:30;14.90;;;10.43;;
54157;SDS011;40065;49.894;10.358;2023-10-19T09:31:32;12.18;;;8.88;;
54157;SDS011;40065;49.894;10.358;2023-10-19T09:36:34;12.52;;;9.45;;
54157;SDS011;40065;49.894;10.358;2023-10-19T09:41:36;12.52;;;8.77;;
54157;SDS011;40065;49.894;10.358;2023-10-19T09:46:39;14.07;;;10.25;;
54157;SDS011;40065;49.894;10.358;2023-10-19T09:51:42;12.60;;;10.00;;
54157;SDS011;40065;49.894;10.358;2023-10-19T09:57:03;15.73;;;11.18;;
54157;SDS011;40065;49.894;10.358;2023-10-19T10:02:18;17.17;;;12.52;;
54157;SDS011;40065;49.894;10.358;2023-10-19T10:07:21;18.60;;;13.93;;
54157;SDS011;40065;49.894;10.358;2023-10-19T10:12:42;19.33;;;13.43;;
54157;SDS011;40065;49.894;10.358;2023-10-19T10:17:44;16.65;;;12.73;;
54157;SDS011;40065;49.894;10.358;2023-10-19T10:23:37;18.05;;;12.45;;
54157;SDS011;40065;49.894;10.358;2023-10-19T10:28:23;16.65;;;11.25;;
54157;SDS011;40065;49.894;10.358;2023-10-19T10:33:41;16.00;;;12.13;;
54157;SDS011;40065;49.894;10.358;2023-10-19T10:38:50;16.25;;;12.18;;
54157;SDS011;40065;49.894;10.358;2023-10-19T10:43:53;16.27;;;12.32;;
54157;SDS011;40065;49.894;10.358;2023-10-19T10:48:56;17.38;;;12.43;;
54157;SDS011;40065;49.894;10.358;2023-10-19T10:53:59;18.35;;;13.18;;
54157;SDS011;40065;49.894;10.358;2023-10-19T10:59:11;17.02;;;12.65;;
54157;SDS011;40065;49.894;10.358;2023-10-19T11:04:14;17.03;;;11.70;;
54157;SDS011;40065;49.894;10.358;2023-10-19T11:09:17;15.88;;;12.48;;
54157;SDS011;40065;49.894;10.358;2023-10-19T11:14:20;18.77;;;12.80;;
54157;SDS011;40065;49.894;10.358;2023-10-19T11:19:37;19.13;;;13.23;;
54157;SDS011;40065;49.894;10.358;2023-10-19T11:24:41;16.20;;;12.27;;
54157;SDS011;40065;49.894;10.358;2023-10-19T11:29:59;18.92;;;12.73;;
54157;SDS011;40065;49.894;10.358;2023-10-19T11:35:05;16.52;;;12.43;;
54157;SDS011;40065;49.894;10.358;2023-10-19T11:40:11;16.15;;;11.70;;
54157;SDS011;40065;49.894;10.358;2023-10-19T11:45:13;16.15;;;11.20;;
54157;SDS011;40065;49.894;10.358;2023-10-19T11:50:15;16.80;;;11.07;;
54157;SDS011;40065;49.894;10.358;2023-10-19T11:55:17;15.27;;;11.43;;
54157;SDS011;40065;49.894;10.358;2023-10-19T12:00:20;15.15;;;10.43;;
54157;SDS011;40065;49.894;10.358;2023-10-19T12:05:34;17.50;;;11.50;;
54157;SDS011;40065;49.894;10.358;2023-10-19T12:10:38;16.58;;;10.65;;
54157;SDS011;40065;49.894;10.358;2023-10-19T12:15:40;16.15;;;11.10;;
54157;SDS011;40065;49.894;10.358;2023-10-19T12:20:42;16.50;;;11.95;;
54157;SDS011;40065;49.894;10.358;2023-10-19T12:25:46;20.65;;;12.38;;
54157;SDS011;40065;49.894;10.358;2023-10-19T12:30:58;16.50;;;12.65;;
54157;SDS011;40065;49.894;10.358;2023-10-19T12:36:00;16.05;;;12.10;;
54157;SDS011;40065;49.894;10.358;2023-10-19T12:41:02;19.98;;;11.88;;
54157;SDS011;40065;49.894;10.358;2023-10-19T12:46:05;15.75;;;11.80;;
54157;SDS011;40065;49.894;10.358;2023-10-19T12:51:09;17.20;;;12.40;;
54157;SDS011;40065;49.894;10.358;2023-10-19T12:56:13;14.83;;;11.07;;
54157;SDS011;40065;49.894;10.358;2023-10-19T13:01:15;15.90;;;11.98;;
54157;SDS011;40065;49.894;10.358;2023-10-19T13:06:20;20.67;;;13.70;;
54157;SDS011;40065;49.894;10.358;2023-10-19T13:11:25;17.85;;;13.68;;
54157;SDS011;40065;49.894;10.358;2023-10-19T13:16:28;24.65;;;14.77;;
54157;SDS011;40065;49.894;10.358;2023-10-19T13:21:32;17.58;;;13.95;;
54157;SDS011;40065;49.894;10.358;2023-10-19T13:26:35;20.08;;;14.02;;
54157;SDS011;40065;49.894;10.358;2023-10-19T13:31:37;21.27;;;14.45;;
54157;SDS011;40065;49.894;10.358;2023-10-19T13:36:39;17.65;;;14.07;;
54157;SDS011;40065;49.894;10.358;2023-10-19T13:41:40;21.33;;;14.25;;
54157;SDS011;40065;49.894;10.358;2023-10-19T13:46:43;21.23;;;14.05;;
54157;SDS011;40065;49.894;10.358;2023-10-19T13:51:45;19.23;;;13.98;;
54157;SDS011;40065;49.894;10.358;2023-10-19T13:56:47;17.17;;;13.20;;
54157;SDS011;40065;49.894;10.358;2023-10-19T14:01:48;24.30;;;14.32;;
54157;SDS011;40065;49.894;10.358;2023-10-19T14:06:51;18.93;;;13.73;;
54157;SDS011;40065;49.894;10.358;2023-10-19T14:11:55;22.17;;;13.98;;
54157;SDS011;40065;49.894;10.358;2023-10-19T14:16:57;21.50;;;14.35;;
54157;SDS011;40065;49.894;10.358;2023-10-19T14:21:59;19.52;;;14.52;;
54157;SDS011;40065;49.894;10.358;2023-10-19T14:27:02;19.80;;;15.38;;
54157;SDS011;40065;49.894;10.358;2023-10-19T14:32:03;24.02;;;16.58;;
54157;SDS011;40065;49.894;10.358;2023-10-19T14:37:06;23.92;;;16.77;;
54157;SDS011;40065;49.894;10.358;2023-10-19T14:42:09;24.23;;;17.50;;
54157;SDS011;40065;49.894;10.358;2023-10-19T14:47:11;22.15;;;16.92;;
54157;SDS011;40065;49.894;10.358;2023-10-19T14:52:14;25.85;;;18.45;;
54157;SDS011;40065;49.894;10.358;2023-10-19T14:57:16;22.98;;;17.05;;
54157;SDS011;40065;49.894;10.358;2023-10-19T15:02:18;23.33;;;17.48;;
54157;SDS011;40065;49.894;10.358;2023-10-19T15:07:24;23.02;;;17.20;;
54157;SDS011;40065;49.894;10.358;2023-10-19T15:12:26;25.88;;;18.88;;
54157;SDS011;40065;49.894;10.358;2023-10-19T15:17:28;30.83;;;19.33;;
54157;SDS011;40065;49.894;10.358;2023-10-19T15:22:30;27.45;;;18.83;;
54157;SDS011;40065;49.894;10.358;2023-10-19T15:27:34;28.30;;;18.67;;
54157;SDS011;40065;49.894;10.358;2023-10-19T15:32:37;30.50;;;20.52;;
54157;SDS011;40065;49.894;10.358;2023-10-19T15:37:40;28.83;;;19.80;;
54157;SDS011;40065;49.894;10.358;2023-10-19T15:42:43;28.17;;;19.33;;
54157;SDS011;40065;49.894;10.358;2023-10-19T15:47:45;33.80;;;20.33;;
54157;SDS011;40065;49.894;10.358;2023-10-19T15:52:48;26.05;;;19.30;;
54157;SDS011;40065;49.894;10.358;2023-10-19T15:57:52;29.90;;;20.00;;
54157;SDS011;40065;49.894;10.358;2023-10-19T16:02:55;28.60;;;19.52;;
54157;SDS011;40065;49.894;10.358;2023-10-19T16:07:58;30.85;;;21.20;;
54157;SDS011;40065;49.894;10.358;2023-10-19T16:12:59;32.00;;;21.77;;
54157;SDS011;40065;49.894;10.358;2023-10-19T16:18:01;34.92;;;21.70;;
54157;SDS011;40065;49.894;10.358;2023-10-19T16:23:03;33.88;;;21.38;;
54157;SDS011;40065;49.894;10.358;2023-10-19T16:28:06;31.52;;;21.08;;
54157;SDS011;40065;49.894;10.358;2023-10-19T16:33:09;30.02;;;20.73;;
54157;SDS011;40065;49.894;10.358;2023-10-19T16:38:11;30.60;;;19.17;;
54157;SDS011;40065;49.894;10.358;2023-10-19T16:43:13;27.92;;;19.42;;
54157;SDS011;40065;49.894;10.358;2023-10-19T16:48:15;27.67;;;19.42;;
54157;SDS011;40065;49.894;10.358;2023-10-19T16:53:17;29.27;;;18.80;;
54157;SDS011;40065;49.894;10.358;2023-10-19T16:58:19;27.77;;;18.83;;
54157;SDS011;40065;49.894;10.358;2023-10-19T17:03:21;28.65;;;18.25;;
54157;SDS011;40065;49.894;10.358;2023-10-19T17:08:23;28.20;;;19.55;;
54157;SDS011;40065;49.894;10.358;2023-10-19T17:13:25;26.08;;;18.13;;
54157;SDS011;40065;49.894;10.358;2023-10-19T17:18:28;34.33;;;23.25;;
54157;SDS011;40065;49.894;10.358;2023-10-19T17:23:30;31.15;;;21.55;;
54157;SDS011;40065;49.894;10.358;2023-10-19T17:28:32;26.77;;;18.98;;
54157;SDS011;40065;49.894;10.358;2023-10-19T17:33:34;27.17;;;19.02;;
54157;SDS011;40065;49.894;10.358;2023-10-19T17:38:36;33.58;;;19.75;;
54157;SDS011;40065;49.894;10.358;2023-10-19T17:43:38;29.60;;;19.60;;
54157;SDS011;40065;49.894;10.358;2023-10-19T17:48:40;27.08;;;19.55;;
54157;SDS011;40065;49.894;10.358;2023-10-19T17:53:44;29.17;;;20.07;;
54157;SDS011;40065;49.894;10.358;2023-10-19T17:58:45;30.27;;;20.38;;
54157;SDS011;40065;49.894;10.358;2023-10-19T18:03:47;31.05;;;21.58;;
54157;SDS011;40065;49.894;10.358;2023-10-19T18:08:51;27.23;;;19.35;;
54157;SDS011;40065;49.894;10.358;2023-10-19T18:13:52;28.85;;;18.98;;
54157;SDS011;40065;49.894;10.358;2023-10-19T18:18:54;25.08;;;18.17;;
54157;SDS011;40065;49.894;10.358;2023-10-19T18:23:56;26.65;;;18.65;;
54157;SDS011;40065;49.894;10.358;2023-10-19T18:28:59;23.10;;;15.13;;
54157;SDS011;40065;49.894;10.358;2023-10-19T18:34:01;26.65;;;18.45;;
54157;SDS011;40065;49.894;10.358;2023-10-19T18:39:04;26.38;;;19.27;;
54157;SDS011;40065;49.894;10.358;2023-10-19T18:44:08;24.27;;;18.45;;
54157;SDS011;40065;49.894;10.358;2023-10-19T18:49:10;22.67;;;16.50;;
54157;SDS011;40065;49.894;10.358;2023-10-19T18:54:12;24.55;;;18.10;;
54157;SDS011;40065;49.894;10.358;2023-10-19T18:59:18;21.83;;;15.20;;
54157;SDS011;40065;49.894;10.358;2023-10-19T19:04:20;24.67;;;16.48;;
54157;SDS011;40065;49.894;10.358;2023-10-19T19:09:21;32.97;;;21.70;;
54157;SDS011;40065;49.894;10.358;2023-10-19T19:14:23;32.30;;;20.13;;
54157;SDS011;40065;49.894;10.358;2023-10-19T19:19:26;30.38;;;20.02;;
54157;SDS011;40065;49.894;10.358;2023-10-19T19:24:28;27.35;;;19.38;;
54157;SDS011;40065;49.894;10.358;2023-10-19T19:29:29;28.40;;;19.42;;
54157;SDS011;40065;49.894;10.358;2023-10-19T19:34:32;28.83;;;18.42;;
54157;SDS011;40065;49.894;10.358;2023-10-19T19:39:34;21.40;;;15.63;;
54157;SDS011;40065;49.894;10.358;2023-10-19T19:44:36;23.05;;;14.65;;
54157;SDS011;40065;49.894;10.358;2023-10-19T19:49:38;20.70;;;12.93;;
54157;SDS011;40065;49.894;10.358;2023-10-19T19:54:40;14.55;;;10.43;;
54157;SDS011;40065;49.894;10.358;2023-10-19T19:59:42;24.08;;;18.20;;
54157;SDS011;40065;49.894;10.358;2023-10-19T20:04:44;24.25;;;16.67;;
54157;SDS011;40065;49.894;10.358;2023-10-19T20:09:45;24.15;;;15.88;;
54157;SDS011;40065;49.894;10.358;2023-10-19T20:14:47;21.83;;;14.77;;
54157;SDS011;40065;49.894;10.358;2023-10-19T20:19:49;22.88;;;15.80;;
54157;SDS011;40065;49.894;10.358;2023-10-19T20:24:51;17.10;;;12.65;;
54157;SDS011;40065;49.894;10.358;2023-10-19T20:29:53;25.13;;;16.60;;
54157;SDS011;40065;49.894;10.358;2023-10-19T20:34:55;24.63;;;15.90;;
54157;SDS011;40065;49.894;10.358;2023-10-19T20:39:57;22.08;;;15.23;;
54157;SDS011;40065;49.894;10.358;2023-10-19T20:45:02;21.65;;;13.40;;
54157;SDS011;40065;49.894;10.358;2023-10-19T20:50:04;24.52;;;15.98;;
54157;SDS011;40065;49.894;10.358;2023-10-19T20:55:07;22.83;;;15.30;;
54157;SDS011;40065;49.894;10.358;2023-10-19T21:00:10;18.15;;;13.45;;
54157;SDS011;40065;49.894;10.358;2023-10-19T21:05:13;19.67;;;14.65;;
54157;SDS011;40065;49.894;10.358;2023-10-19T21:10:21;20.92;;;14.43;;
54157;SDS011;40065;49.894;10.358;2023-10-19T21:15:24;23.30;;;14.60;;
54157;SDS011;40065;49.894;10.358;2023-10-19T21:20:26;21.65;;;15.30;;
54157;SDS011;40065;49.894;10.358;2023-10-19T21:25:28;21.55;;;15.13;;
54157;SDS011;40065;49.894;10.358;2023-10-19T21:30:30;18.10;;;13.68;;
54157;SDS011;40065;49.894;10.358;2023-10-19T21:35:32;19.60;;;13.70;;
54157;SDS011;40065;49.894;10.358;2023-10-19T21:40:43;22.42;;;15.57;;
54157;SDS011;40065;49.894;10.358;2023-10-19T21:45:45;22.60;;;14.13;;
54157;SDS011;40065;49.894;10.358;2023-10-19T21:50:48;21.35;;;15.32;;
54157;SDS011;40065;49.894;10.358;2023-10-19T21:55:53;19.27;;;13.25;;
54157;SDS011;40065;49.894;10.358;2023-10-19T22:00:56;18.73;;;13.38;;
54157;SDS011;40065;49.894;10.358;2023-10-19T22:05:58;23.60;;;15.55;;
54157;SDS011;40065;49.894;10.358;2023-10-19T22:11:00;19.65;;;12.73;;
54157;SDS011;40065;49.894;10.358;2023-10-19T22:16:04;19.63;;;13.17;;
54157;SDS011;40065;49.894;10.358;2023-10-19T22:21:06;20.42;;;14.10;;
54157;SDS011;40065;49.894;10.358;2023-10-19T22:26:08;18.40;;;13.43;;
54157;SDS011;40065;49.894;10.358;2023-10-19T22:31:10;21.55;;;14.45;;
54157;SDS011;40065;49.894;10.358;2023-10-19T22:36:12;18.25;;;12.93;;
54157;SDS011;40065;49.894;10.358;2023-10-19T22:41:13;19.92;;;11.38;;
54157;SDS011;40065;49.894;10.358;2023-10-19T22:46:16;19.10;;;13.02;;
54157;SDS011;40065;49.894;10.358;2023-10-19T22:51:18;21.40;;;13.70;;
54157;SDS011;40065;49.894;10.358;2023-10-19T22:56:19;20.67;;;14.23;;
54157;SDS011;40065;49.894;10.358;2023-10-19T23:01:25;23.20;;;15.10;;
54157;SDS011;40065;49.894;10.358;2023-10-19T23:06:27;21.75;;;15.57;;
54157;SDS011;40065;49.894;10.358;2023-10-19T23:11:30;20.58;;;14.95;;
54157;SDS011;40065;49.894;10.358;2023-10-19T23:16:32;21.75;;;14.43;;
54157;SDS011;40065;49.894;10.358;2023-10-19T23:21:37;19.60;;;13.38;;
54157;SDS011;40065;49.894;10.358;2023-10-19T23:26:41;20.90;;;14.18;;
54157;SDS011;40065;49.894;10.358;2023-10-19T23:31:44;19.20;;;14.40;;
54157;SDS011;40065;49.894;10.358;2023-10-19T23:36:46;17.63;;;13.75;;
54157;SDS011;40065;49.894;10.358;2023-10-19T23:41:48;25.08;;;15.57;;
54157;SDS011;40065;49.894;10.358;2023-10-19T23:46:52;20.47;;;14.93;;
54157;SDS011;40065;49.894;10.358;2023-10-19T23:51:54;18.33;;;14.18;;
54157;SDS011;40065;49.894;10.358;2023-10-19T23:56:56;26.08;;;17.98;;
